Time;durP1;ratioP1;P1;durP2;ratioP2;P2;SDS_P1;SDS_P2;PMS_P1;PMS_P2;Temp;Humidity;BMP_temperature;BMP_pressure;BME280_temperature;BME280_humidity;BME280_pressure;Samples;Min_cycle;Max_cycle;Signal;HPM_P1;HPM_P2
2023/08/29 00:01:10;;;;;;;5.17;4.67;;;16.00;99.90;;;;;;5014276;28;20454;-81
2023/08/29 00:03:36;;;;;;;3.83;3.13;;;16.00;99.90;;;;;;5013891;28;20459;-81
2023/08/29 00:06:04;;;;;;;6.10;4.20;;;16.00;99.90;;;;;;5013751;28;20466;-83
2023/08/29 00:08:32;;;;;;;4.47;4.03;;;15.90;99.90;;;;;;5014477;28;20553;-82
2023/08/29 00:10:59;;;;;;;5.30;4.47;;;15.90;99.90;;;;;;5014123;28;20453;-81
2023/08/29 00:13:27;;;;;;;4.73;4.07;;;15.80;99.90;;;;;;5014325;28;20911;-82
2023/08/29 00:15:55;;;;;;;4.30;3.87;;;15.80;99.90;;;;;;4977410;28;1061934;-80
2023/08/29 00:18:22;;;;;;;6.27;4.47;;;15.80;99.90;;;;;;5014885;28;20499;-81
2023/08/29 00:20:49;;;;;;;4.80;4.37;;;15.80;99.90;;;;;;5015859;28;20445;-81
2023/08/29 00:23:16;;;;;;;4.80;4.40;;;15.80;99.90;;;;;;5015802;28;20450;-82
2023/08/29 00:25:43;;;;;;;5.60;4.20;;;15.80;99.90;;;;;;5014196;28;20447;-82
2023/08/29 00:28:11;;;;;;;4.40;4.00;;;15.80;99.90;;;;;;5014877;28;20520;-81
2023/08/29 00:30:40;;;;;;;4.47;4.07;;;15.70;99.90;;;;;;5014787;28;20487;-82
2023/08/29 00:33:08;;;;;;;5.90;4.20;;;15.70;99.90;;;;;;5014793;28;20954;-82
2023/08/29 00:35:35;;;;;;;4.90;3.97;;;15.60;99.90;;;;;;5014449;28;20449;-82
2023/08/29 00:38:03;;;;;;;5.23;4.73;;;15.60;99.90;;;;;;5014904;28;20479;-82
2023/08/29 00:40:31;;;;;;;6.23;4.10;;;15.60;99.90;;;;;;5014367;28;20453;-81
2023/08/29 00:42:58;;;;;;;4.00;3.57;;;15.60;99.90;;;;;;5014324;28;20957;-82
2023/08/29 00:45:26;;;;;;;3.90;3.40;;;15.60;99.90;;;;;;5015409;28;20456;-82
2023/08/29 00:47:54;;;;;;;5.60;3.90;;;15.50;99.90;;;;;;5015353;28;21003;-81
2023/08/29 00:50:21;;;;;;;4.77;4.37;;;15.40;99.90;;;;;;5015302;28;20455;-84
2023/08/29 00:52:48;;;;;;;4.20;3.63;;;15.40;99.90;;;;;;5014755;28;20500;-82
2023/08/29 00:55:16;;;;;;;5.80;3.83;;;15.40;99.90;;;;;;5014637;28;20457;-81
2023/08/29 00:57:43;;;;;;;4.33;3.93;;;15.30;99.90;;;;;;5014215;28;20474;-80
2023/08/29 01:00:12;;;;;;;4.63;3.30;;;15.30;99.90;;;;;;5014865;28;20481;-81
2023/08/29 01:02:39;;;;;;;4.60;3.43;;;15.40;99.90;;;;;;5015049;28;20457;-81
2023/08/29 01:05:12;;;;;;;5.00;3.70;;;15.30;99.90;;;;;;5014028;28;20453;-87
2023/08/29 01:07:39;;;;;;;4.70;3.97;;;15.30;99.90;;;;;;5014408;28;20731;-81
2023/08/29 01:10:07;;;;;;;6.03;3.50;;;15.30;99.90;;;;;;5014037;28;20512;-82
2023/08/29 01:12:43;;;;;;;4.13;3.73;;;15.20;99.90;;;;;;5014055;28;20559;-82
2023/08/29 01:15:17;;;;;;;4.53;3.37;;;15.20;99.90;;;;;;5013969;28;20484;-82
2023/08/29 01:17:48;;;;;;;4.73;4.23;;;15.20;99.90;;;;;;5013981;28;20482;-83
2023/08/29 01:20:18;;;;;;;5.07;3.83;;;15.10;99.90;;;;;;5014420;28;20533;-82
2023/08/29 01:22:57;;;;;;;5.23;4.20;;;15.10;99.90;;;;;;5014000;28;20479;-82
2023/08/29 01:25:31;;;;;;;4.37;3.97;;;15.10;99.90;;;;;;5013523;28;20573;-83
2023/08/29 01:28:01;;;;;;;4.40;3.97;;;15.10;99.90;;;;;;5015165;28;20453;-81
2023/08/29 01:30:29;;;;;;;4.33;3.93;;;15.10;99.90;;;;;;5014947;28;20450;-82
2023/08/29 01:32:55;;;;;;;4.70;4.30;;;15.10;99.90;;;;;;5013755;28;20447;-83
2023/08/29 01:35:23;;;;;;;5.63;4.40;;;15.10;99.90;;;;;;5014072;28;20449;-81
2023/08/29 01:37:50;;;;;;;5.00;4.50;;;15.10;99.90;;;;;;5015042;28;20557;-81
2023/08/29 01:40:17;;;;;;;5.20;4.70;;;15.10;99.90;;;;;;5015559;28;20828;-82
2023/08/29 01:42:44;;;;;;;6.23;4.60;;;15.10;99.90;;;;;;5012473;28;20460;-82
2023/08/29 01:45:12;;;;;;;4.93;4.20;;;15.10;99.90;;;;;;4995310;28;20462;-81
2023/08/29 01:47:39;;;;;;;6.03;4.23;;;15.00;99.90;;;;;;4996174;28;20475;-81
2023/08/29 01:50:08;;;;;;;5.40;4.90;;;15.00;99.90;;;;;;5007660;28;20488;-82
2023/08/29 01:52:36;;;;;;;6.17;4.47;;;15.00;99.90;;;;;;5016926;28;20560;-82
2023/08/29 01:55:03;;;;;;;5.20;4.70;;;14.90;99.90;;;;;;5016096;28;20546;-82
2023/08/29 01:57:34;;;;;;;5.60;4.60;;;14.90;99.90;;;;;;5016162;28;20478;-80
2023/08/29 02:00:02;;;;;;;5.30;4.20;;;14.90;99.90;;;;;;5019504;28;20509;-82
2023/08/29 02:02:30;;;;;;;4.47;4.07;;;14.90;99.90;;;;;;5018184;28;20447;-82
2023/08/29 02:04:57;;;;;;;4.53;4.10;;;14.90;99.90;;;;;;5015154;28;20462;-83
2023/08/29 02:07:24;;;;;;;4.47;3.73;;;14.90;99.90;;;;;;5015338;28;20480;-80
2023/08/29 02:09:50;;;;;;;4.47;3.80;;;14.90;99.90;;;;;;5018223;28;20497;-82
2023/08/29 02:12:17;;;;;;;4.90;4.47;;;14.90;99.90;;;;;;5018193;28;20484;-80
2023/08/29 02:14:44;;;;;;;5.70;4.47;;;14.80;99.90;;;;;;5018402;28;20459;-80
2023/08/29 02:17:11;;;;;;;5.80;4.40;;;14.80;99.90;;;;;;5017789;28;20488;-81
2023/08/29 02:19:39;;;;;;;5.07;4.67;;;14.90;99.90;;;;;;5018769;28;20976;-81
2023/08/29 02:22:06;;;;;;;5.70;4.50;;;14.90;99.90;;;;;;5018546;28;20450;-80
2023/08/29 02:24:32;;;;;;;5.60;5.00;;;14.90;99.90;;;;;;5018623;28;20449;-81
2023/08/29 02:26:59;;;;;;;5.90;5.40;;;14.90;99.90;;;;;;5020698;28;20477;-84
2023/08/29 02:29:26;;;;;;;5.20;4.60;;;14.90;99.90;;;;;;5021092;28;20495;-81
2023/08/29 02:31:53;;;;;;;5.03;4.53;;;14.90;99.90;;;;;;5019917;28;20531;-81
2023/08/29 02:34:19;;;;;;;6.10;4.90;;;14.80;99.90;;;;;;5019600;28;20814;-85
2023/08/29 02:36:48;;;;;;;5.70;5.20;;;14.80;99.90;;;;;;5018270;28;20486;-81
2023/08/29 02:39:15;;;;;;;5.20;4.70;;;14.80;99.90;;;;;;5018032;28;20528;-81
2023/08/29 02:41:41;;;;;;;6.47;5.13;;;14.80;99.90;;;;;;5018974;28;20452;-84
2023/08/29 02:44:08;;;;;;;7.40;5.07;;;14.80;99.90;;;;;;5018370;28;20465;-83
2023/08/29 02:46:35;;;;;;;6.17;5.60;;;14.80;99.90;;;;;;5018106;28;20469;-82
2023/08/29 02:49:02;;;;;;;5.40;4.90;;;14.80;99.90;;;;;;5019224;28;20857;-83
2023/08/29 02:51:29;;;;;;;5.57;5.00;;;14.80;99.90;;;;;;5017423;28;20462;-81
2023/08/29 02:53:57;;;;;;;5.93;5.33;;;14.80;99.90;;;;;;5016805;28;20458;-82
2023/08/29 02:56:23;;;;;;;6.00;5.40;;;14.80;99.90;;;;;;5015227;28;20484;-82
2023/08/29 02:58:50;;;;;;;6.20;5.23;;;14.80;99.90;;;;;;5015754;28;20453;-82
2023/08/29 03:01:17;;;;;;;6.60;5.73;;;14.80;99.90;;;;;;5007272;28;20485;-83
2023/08/29 03:03:44;;;;;;;7.33;5.50;;;14.80;99.90;;;;;;4996017;28;21018;-81
2023/08/29 03:06:11;;;;;;;6.27;5.67;;;14.70;99.90;;;;;;4996061;28;20479;-82
2023/08/29 03:08:37;;;;;;;5.90;5.40;;;14.70;99.90;;;;;;5015078;28;20457;-81
2023/08/29 03:11:06;;;;;;;5.70;5.20;;;14.70;99.90;;;;;;5014960;28;20455;-82
2023/08/29 03:13:32;;;;;;;6.63;5.10;;;14.70;99.90;;;;;;5015453;28;20461;-81
2023/08/29 03:16:00;;;;;;;6.33;5.70;;;14.70;99.90;;;;;;5014945;28;21008;-83
2023/08/29 03:18:27;;;;;;;6.80;5.77;;;14.70;99.90;;;;;;5014261;28;20456;-81
2023/08/29 03:20:54;;;;;;;7.30;6.57;;;14.70;99.90;;;;;;5015561;28;20825;-80
2023/08/29 03:23:21;;;;;;;6.60;5.97;;;14.70;99.90;;;;;;5015860;28;20715;-81
2023/08/29 03:25:48;;;;;;;6.77;6.13;;;14.70;99.90;;;;;;5013775;28;20554;-81
2023/08/29 03:28:16;;;;;;;8.63;7.10;;;14.60;99.90;;;;;;5015845;28;20459;-81
2023/08/29 03:30:43;;;;;;;6.43;5.83;;;14.60;99.90;;;;;;5015862;28;20497;-81
2023/08/29 03:33:10;;;;;;;5.90;5.40;;;14.70;99.90;;;;;;5016041;28;20450;-79
2023/08/29 03:35:37;;;;;;;6.80;6.20;;;14.60;99.90;;;;;;5017089;28;20456;-80
2023/08/29 03:38:04;;;;;;;9.50;6.23;;;14.60;99.90;;;;;;5018488;28;20475;-80
2023/08/29 03:40:31;;;;;;;6.37;5.77;;;14.60;99.90;;;;;;5016140;28;20477;-80
2023/08/29 03:42:58;;;;;;;7.43;6.73;;;14.50;99.90;;;;;;5017594;28;20460;-80
2023/08/29 03:45:26;;;;;;;7.20;6.50;;;14.60;99.90;;;;;;5017635;28;20521;-80
2023/08/29 03:47:53;;;;;;;6.23;5.53;;;14.60;99.90;;;;;;5017453;28;20851;-79
2023/08/29 03:50:21;;;;;;;7.77;6.90;;;14.60;99.90;;;;;;5017578;28;20487;-79
2023/08/29 03:52:48;;;;;;;7.63;6.53;;;14.60;99.90;;;;;;5018971;28;20506;-80
2023/08/29 03:55:15;;;;;;;6.63;6.03;;;14.60;99.90;;;;;;5017043;28;20457;-85
2023/08/29 03:57:42;;;;;;;9.00;7.53;;;14.50;99.90;;;;;;4997537;28;20483;-80
2023/08/29 04:00:10;;;;;;;7.27;6.57;;;14.60;99.90;;;;;;4999181;28;20634;-80
2023/08/29 04:02:39;;;;;;;8.70;6.60;;;14.60;99.90;;;;;;4997729;28;20502;-82
2023/08/29 04:05:15;;;;;;;7.73;6.97;;;14.60;99.90;;;;;;4997566;28;20900;-81
2023/08/29 04:07:42;;;;;;;7.63;6.90;;;14.60;99.90;;;;;;4998811;28;20956;-80
2023/08/29 04:10:10;;;;;;;7.43;6.73;;;14.60;99.90;;;;;;4998517;28;21109;-79
2023/08/29 04:12:36;;;;;;;9.10;8.20;;;14.50;99.90;;;;;;5008363;28;20461;-80
2023/08/29 04:15:04;;;;;;;7.27;6.57;;;14.50;99.90;;;;;;5018067;28;20462;-80
2023/08/29 04:17:31;;;;;;;7.73;6.93;;;14.50;99.90;;;;;;5017391;28;20567;-80
2023/08/29 04:20:00;;;;;;;8.00;7.20;;;14.50;99.90;;;;;;5018836;28;20511;-80
2023/08/29 04:22:26;;;;;;;9.20;7.90;;;14.50;99.90;;;;;;5017781;28;20504;-78
2023/08/29 04:24:53;;;;;;;8.00;7.20;;;14.50;99.90;;;;;;5002951;28;20477;-79
2023/08/29 04:27:21;;;;;;;8.80;7.47;;;14.50;99.90;;;;;;5017142;28;20832;-81
2023/08/29 04:29:48;;;;;;;12.97;7.00;;;14.50;99.90;;;;;;5018663;28;21132;-82
2023/08/29 04:32:15;;;;;;;8.03;7.20;;;14.50;99.90;;;;;;5017907;28;20520;-80
2023/08/29 04:34:42;;;;;;;9.43;7.63;;;14.50;99.90;;;;;;5017705;28;20457;-79
2023/08/29 04:37:10;;;;;;;8.53;7.73;;;14.50;99.90;;;;;;5018175;28;20478;-82
2023/08/29 04:39:37;;;;;;;9.10;7.43;;;14.40;99.90;;;;;;5018467;28;20454;-81
2023/08/29 04:42:04;;;;;;;9.40;6.60;;;14.40;99.90;;;;;;5018605;28;20458;-79
2023/08/29 04:44:31;;;;;;;9.20;7.40;;;14.40;99.90;;;;;;5018335;28;20480;-79
2023/08/29 04:46:58;;;;;;;9.43;8.03;;;14.40;99.90;;;;;;5017495;28;20474;-79
2023/08/29 04:49:25;;;;;;;9.63;8.00;;;14.40;99.90;;;;;;5019053;28;20485;-83
2023/08/29 04:51:52;;;;;;;7.13;6.40;;;14.40;99.90;;;;;;5019727;28;20461;-80
2023/08/29 04:54:20;;;;;;;7.90;7.10;;;14.40;99.90;;;;;;5019114;28;20565;-80
2023/08/29 04:56:47;;;;;;;8.00;7.20;;;14.40;99.90;;;;;;5018110;28;20478;-80
2023/08/29 04:59:14;;;;;;;8.43;7.53;;;14.50;99.90;;;;;;5019507;28;20461;-81
2023/08/29 05:01:40;;;;;;;11.77;7.50;;;14.40;99.90;;;;;;5018574;28;20603;-80
2023/08/29 05:04:08;;;;;;;6.87;6.27;;;14.40;99.90;;;;;;5018883;28;20528;-79
2023/08/29 05:06:35;;;;;;;7.03;6.33;;;14.50;99.90;;;;;;5018886;28;20505;-79
2023/08/29 05:09:02;;;;;;;7.47;6.77;;;14.50;99.90;;;;;;5019003;28;20547;-83
2023/08/29 05:11:30;;;;;;;8.20;7.40;;;14.50;99.90;;;;;;5018947;28;20495;-79
2023/08/29 05:13:57;;;;;;;8.00;6.73;;;14.50;99.90;;;;;;5015448;28;20875;-79
2023/08/29 05:16:24;;;;;;;8.13;6.83;;;14.50;99.90;;;;;;5011346;28;20492;-81
2023/08/29 05:18:51;;;;;;;8.20;7.40;;;14.50;99.90;;;;;;5061958;22;20496;-79
2023/08/29 05:21:17;;;;;;;9.13;7.60;;;14.60;99.90;;;;;;5034163;28;20456;-79
2023/08/29 05:23:44;;;;;;;8.63;7.73;;;14.60;99.90;;;;;;5032290;28;20449;-81
2023/08/29 05:26:11;;;;;;;11.23;10.17;;;14.60;99.90;;;;;;5030968;28;20539;-79
2023/08/29 05:28:39;;;;;;;10.67;9.57;;;14.70;99.90;;;;;;5028065;28;20461;-82
2023/08/29 05:31:06;;;;;;;14.27;9.70;;;14.80;99.90;;;;;;5033179;28;20485;-79
2023/08/29 05:33:33;;;;;;;10.63;9.53;;;14.80;99.90;;;;;;5033942;28;20461;-80
2023/08/29 05:35:59;;;;;;;11.03;9.87;;;14.90;99.90;;;;;;5032661;28;20449;-80
2023/08/29 05:38:27;;;;;;;10.33;8.50;;;14.90;99.90;;;;;;5033749;28;20472;-80
2023/08/29 05:40:55;;;;;;;15.70;11.00;;;14.90;99.90;;;;;;5033602;28;20453;-81
2023/08/29 05:43:22;;;;;;;12.20;10.67;;;15.00;99.90;;;;;;5036511;28;20879;-80
2023/08/29 05:45:50;;;;;;;16.53;11.83;;;15.10;99.90;;;;;;5036610;28;20448;-81
2023/08/29 05:48:17;;;;;;;13.00;11.37;;;15.10;99.90;;;;;;5017202;28;20970;-79
2023/08/29 05:50:44;;;;;;;15.43;11.47;;;15.10;99.90;;;;;;5018757;28;20477;-79
2023/08/29 05:53:11;;;;;;;12.03;10.77;;;15.20;99.90;;;;;;5018194;28;20457;-80
2023/08/29 05:55:38;;;;;;;13.27;11.00;;;15.20;99.90;;;;;;5016654;28;20446;-79
2023/08/29 05:58:05;;;;;;;11.93;10.73;;;15.30;99.90;;;;;;5018257;28;20483;-78
2023/08/29 06:00:32;;;;;;;11.37;10.17;;;15.30;99.90;;;;;;5018805;28;20471;-81
2023/08/29 06:03:01;;;;;;;11.43;10.20;;;15.40;99.90;;;;;;5017904;28;20451;-79
2023/08/29 06:05:28;;;;;;;10.90;9.30;;;15.40;99.90;;;;;;5016996;28;20460;-80
2023/08/29 06:07:54;;;;;;;12.83;11.40;;;15.40;99.90;;;;;;5017384;28;20466;-81
2023/08/29 06:10:22;;;;;;;12.07;10.80;;;15.50;99.90;;;;;;5017413;28;20491;-82
2023/08/29 06:12:49;;;;;;;11.70;10.50;;;15.50;99.90;;;;;;5017811;28;20532;-79
2023/08/29 06:15:16;;;;;;;10.90;9.80;;;15.60;99.90;;;;;;5018202;28;20548;-80
2023/08/29 06:17:42;;;;;;;12.90;11.50;;;15.60;99.90;;;;;;5018354;28;20488;-82
2023/08/29 06:20:11;;;;;;;12.03;10.63;;;15.70;99.90;;;;;;5018209;28;20445;-81
2023/08/29 06:22:38;;;;;;;13.57;10.70;;;15.70;99.90;;;;;;5018489;28;20491;-81
2023/08/29 06:25:06;;;;;;;11.73;10.53;;;15.70;99.90;;;;;;5018832;28;20476;-81
2023/08/29 06:27:34;;;;;;;12.97;10.30;;;15.80;99.90;;;;;;5019094;28;20491;-79
2023/08/29 06:30:01;;;;;;;11.33;10.13;;;15.80;99.90;;;;;;5030901;28;20484;-82
2023/08/29 06:32:27;;;;;;;10.90;9.80;;;15.80;99.90;;;;;;5033139;28;20456;-82
2023/08/29 06:34:55;;;;;;;12.63;10.57;;;15.90;99.90;;;;;;5031940;28;20551;-80
2023/08/29 06:37:23;;;;;;;10.97;9.93;;;15.90;99.90;;;;;;5031891;28;20872;-82
2023/08/29 06:39:51;;;;;;;11.17;10.07;;;16.00;99.90;;;;;;5035387;28;20476;-81
2023/08/29 06:42:18;;;;;;;9.90;9.00;;;16.00;99.90;;;;;;5036978;28;20832;-80
2023/08/29 06:44:44;;;;;;;9.60;8.60;;;16.00;99.90;;;;;;5029820;28;20477;-82
2023/08/29 06:47:12;;;;;;;12.00;10.30;;;16.00;99.90;;;;;;5017621;28;20484;-82
2023/08/29 06:49:38;;;;;;;10.07;9.07;;;16.10;99.90;;;;;;5019331;28;20508;-81
2023/08/29 06:52:06;;;;;;;10.73;9.63;;;16.20;99.90;;;;;;5018028;28;20485;-81
2023/08/29 06:54:35;;;;;;;11.77;10.67;;;16.20;99.90;;;;;;5018795;28;20449;-82
2023/08/29 06:57:02;;;;;;;11.67;10.10;;;16.20;99.90;;;;;;5018899;28;20544;-82
2023/08/29 06:59:29;;;;;;;10.47;9.13;;;16.20;99.90;;;;;;5019650;28;20454;-81
2023/08/29 07:01:56;;;;;;;13.70;10.37;;;16.30;99.90;;;;;;5019010;28;20484;-82
2023/08/29 07:04:23;;;;;;;10.57;9.57;;;16.30;99.90;;;;;;5044042;28;20550;-80
2023/08/29 07:06:49;;;;;;;11.70;10.50;;;16.30;99.90;;;;;;5038445;28;20929;-80
2023/08/29 07:09:17;;;;;;;12.80;11.10;;;16.40;99.90;;;;;;5037956;28;20489;-79
2023/08/29 07:11:45;;;;;;;10.00;9.10;;;16.50;99.90;;;;;;5038314;28;20488;-79
2023/08/29 07:14:12;;;;;;;10.17;8.57;;;16.40;99.90;;;;;;5038154;28;20463;-81
2023/08/29 07:16:38;;;;;;;12.47;10.17;;;16.50;99.90;;;;;;5037421;28;20448;-81
2023/08/29 07:19:06;;;;;;;9.77;8.77;;;16.50;99.90;;;;;;5037872;28;20918;-80
2023/08/29 07:21:32;;;;;;;11.60;10.50;;;16.50;99.90;;;;;;5038439;28;20449;-81
2023/08/29 07:23:59;;;;;;;9.80;8.90;;;16.60;99.90;;;;;;5024779;28;20483;-82
2023/08/29 07:26:26;;;;;;;9.80;8.90;;;16.50;99.90;;;;;;5017146;28;20456;-80
2023/08/29 07:28:54;;;;;;;9.80;8.80;;;16.50;99.90;;;;;;5017992;28;20465;-80
2023/08/29 07:31:21;;;;;;;9.20;8.30;;;16.60;99.90;;;;;;5026952;28;20488;-79
2023/08/29 07:33:48;;;;;;;9.67;8.77;;;16.60;99.90;;;;;;5036391;28;20460;-81
2023/08/29 07:36:15;;;;;;;11.20;10.10;;;16.70;99.90;;;;;;5035899;28;20990;-82
2023/08/29 07:38:42;;;;;;;8.90;8.00;;;16.60;99.90;;;;;;5025130;28;20505;-80
2023/08/29 07:41:09;;;;;;;11.40;9.60;;;16.50;99.90;;;;;;5029183;28;20838;-80
2023/08/29 07:43:36;;;;;;;9.23;8.20;;;16.60;99.90;;;;;;5037385;28;20520;-81
2023/08/29 07:46:04;;;;;;;10.83;9.27;;;16.60;99.90;;;;;;5035400;28;20451;-81
2023/08/29 07:48:31;;;;;;;9.90;8.90;;;16.70;99.90;;;;;;5037125;28;20562;-79
2023/08/29 07:50:58;;;;;;;10.30;9.27;;;16.70;99.90;;;;;;5035085;28;20488;-82
2023/08/29 07:53:24;;;;;;;9.97;8.97;;;16.80;99.90;;;;;;5036252;28;20959;-81
2023/08/29 07:55:51;;;;;;;10.30;9.33;;;16.80;99.90;;;;;;5035736;28;20465;-81
2023/08/29 07:58:18;;;;;;;9.23;8.33;;;16.80;99.90;;;;;;5036677;28;20482;-80
2023/08/29 08:00:45;;;;;;;10.77;9.70;;;16.90;99.90;;;;;;5036430;28;20452;-82
2023/08/29 08:03:13;;;;;;;9.83;8.93;;;16.90;99.90;;;;;;5026178;28;20462;-82
2023/08/29 08:05:40;;;;;;;9.80;8.80;;;17.00;99.90;;;;;;5015616;28;20466;-80
2023/08/29 08:08:07;;;;;;;9.43;8.50;;;17.00;99.90;;;;;;5017288;28;20838;-80
2023/08/29 08:10:34;;;;;;;10.50;9.47;;;17.10;99.90;;;;;;5017717;28;20486;-82
2023/08/29 08:13:00;;;;;;;10.70;9.70;;;17.10;99.90;;;;;;5017490;28;20449;-80
2023/08/29 08:15:28;;;;;;;10.47;8.30;;;17.20;99.90;;;;;;5016687;28;20464;-81
2023/08/29 08:17:54;;;;;;;11.30;9.97;;;17.30;99.90;;;;;;5035122;28;20528;-81
2023/08/29 08:20:23;;;;;;;10.73;9.37;;;17.30;99.90;;;;;;5036773;28;20540;-79
2023/08/29 08:22:49;;;;;;;14.33;11.57;;;17.30;99.90;;;;;;5036560;28;20972;-80
2023/08/29 08:25:16;;;;;;;10.77;9.67;;;17.40;99.90;;;;;;5037140;28;20444;-82
2023/08/29 08:27:43;;;;;;;10.93;9.83;;;17.40;99.90;;;;;;5036795;28;20471;-80
2023/08/29 08:30:11;;;;;;;11.60;10.40;;;17.50;99.90;;;;;;5031341;28;20464;-82
2023/08/29 08:32:38;;;;;;;12.27;10.20;;;17.40;99.90;;;;;;5016826;28;20493;-82
2023/08/29 08:35:05;;;;;;;10.80;9.80;;;17.50;99.90;;;;;;5017274;28;20456;-82
2023/08/29 08:37:37;;;;;;;11.10;10.10;;;17.50;99.90;;;;;;5016788;28;20471;-81
2023/08/29 08:40:09;;;;;;;14.20;12.70;;;17.60;99.90;;;;;;5018071;28;20457;-81
2023/08/29 08:42:37;;;;;;;13.23;11.70;;;17.50;99.90;;;;;;5016139;28;20496;-79
2023/08/29 08:45:07;;;;;;;13.43;12.00;;;17.50;99.90;;;;;;5016468;28;20960;-82
2023/08/29 08:47:35;;;;;;;12.77;11.57;;;17.60;99.90;;;;;;5035910;28;20474;-81
2023/08/29 08:50:02;;;;;;;12.80;11.50;;;17.60;99.90;;;;;;5036746;28;20449;-81
2023/08/29 08:52:31;;;;;;;14.83;10.80;;;17.70;99.90;;;;;;5037521;28;20494;-82
2023/08/29 08:54:59;;;;;;;12.00;10.77;;;17.70;99.90;;;;;;5037628;28;20475;-82
2023/08/29 08:57:26;;;;;;;11.67;10.60;;;17.90;99.90;;;;;;5032825;28;20472;-81
2023/08/29 08:59:54;;;;;;;11.80;10.40;;;17.90;99.90;;;;;;5016559;28;21037;-80
2023/08/29 09:02:20;;;;;;;12.30;11.10;;;18.00;99.90;;;;;;5017337;28;20478;-81
2023/08/29 09:04:47;;;;;;;10.97;9.87;;;18.10;99.90;;;;;;5018793;28;20455;-80
2023/08/29 09:07:14;;;;;;;16.23;11.63;;;18.10;99.90;;;;;;5018497;28;20563;-82
2023/08/29 09:09:41;;;;;;;13.80;10.67;;;18.10;99.90;;;;;;5021288;28;20456;-80
2023/08/29 09:12:09;;;;;;;10.67;9.57;;;18.10;99.90;;;;;;5031690;28;20459;-81
2023/08/29 09:14:36;;;;;;;10.47;9.47;;;18.30;99.90;;;;;;5017846;28;20903;-82
2023/08/29 09:17:05;;;;;;;9.30;8.30;;;18.40;99.90;;;;;;5018444;28;20463;-81
2023/08/29 09:19:34;;;;;;;9.90;9.00;;;18.50;99.90;;;;;;5020215;28;20441;-82
2023/08/29 09:22:01;;;;;;;8.40;7.67;;;18.70;99.90;;;;;;5021574;28;20472;-80
2023/08/29 09:24:33;;;;;;;9.40;8.50;;;18.80;99.90;;;;;;5020326;28;20467;-81
2023/08/29 09:27:00;;;;;;;9.27;8.30;;;18.90;99.90;;;;;;5038540;28;20460;-81
2023/08/29 09:29:31;;;;;;;9.77;8.77;;;19.00;99.90;;;;;;5040935;28;20448;-80
2023/08/29 09:31:59;;;;;;;8.63;7.73;;;18.80;99.90;;;;;;5039832;28;20869;-80
2023/08/29 09:34:27;;;;;;;7.63;6.77;;;18.90;99.90;;;;;;5039272;28;20453;-80
2023/08/29 09:36:53;;;;;;;9.93;7.67;;;19.00;99.90;;;;;;5038843;28;20544;-80
2023/08/29 09:39:21;;;;;;;9.00;6.97;;;19.10;99.90;;;;;;5031219;28;20473;-81
2023/08/29 09:42:03;;;;;;;7.80;7.00;;;19.10;99.90;;;;;;5019681;28;20449;-82
2023/08/29 09:44:35;;;;;;;8.97;7.43;;;19.20;99.90;;;;;;5020552;28;20452;-81
2023/08/29 09:47:02;;;;;;;7.53;5.70;;;19.20;99.90;;;;;;5019290;28;20458;-81
2023/08/29 09:49:41;;;;;;;6.20;5.50;;;19.30;99.90;;;;;;5019694;28;20453;-79
2023/08/29 09:52:09;;;;;;;7.03;6.37;;;19.30;99.90;;;;;;5019720;28;20476;-81
2023/08/29 09:54:38;;;;;;;8.23;5.90;;;19.30;99.90;;;;;;5038374;28;20486;-79
2023/08/29 09:57:08;;;;;;;12.13;6.60;;;19.40;99.90;;;;;;5038288;28;20536;-80
2023/08/29 09:59:40;;;;;;;11.50;6.90;;;19.40;99.90;;;;;;5039956;28;20459;-80
2023/08/29 10:02:10;;;;;;;7.97;7.00;;;19.40;99.90;;;;;;5039984;28;20439;-82
2023/08/29 10:04:42;;;;;;;6.07;5.37;;;19.50;99.90;;;;;;5039393;28;20461;-80
2023/08/29 10:07:12;;;;;;;6.87;6.13;;;19.60;99.90;;;;;;5029882;28;20453;-79
2023/08/29 10:09:39;;;;;;;6.97;6.23;;;19.70;99.90;;;;;;5019005;28;20459;-81
2023/08/29 10:12:07;;;;;;;6.40;5.73;;;19.80;99.90;;;;;;5019010;28;20596;-80
2023/08/29 10:14:35;;;;;;;5.57;5.07;;;19.90;99.90;;;;;;5018942;28;20446;-79
2023/08/29 10:17:04;;;;;;;6.33;5.37;;;20.10;99.90;;;;;;5018552;28;20949;-79
2023/08/29 10:19:33;;;;;;;5.67;5.00;;;20.20;99.90;;;;;;5018774;28;20853;-80
2023/08/29 10:22:01;;;;;;;8.47;5.47;;;20.30;99.90;;;;;;5035992;28;20543;-81
2023/08/29 10:24:29;;;;;;;5.77;5.17;;;20.40;99.90;;;;;;5034185;28;20543;-80
2023/08/29 10:27:00;;;;;;;4.33;3.93;;;20.40;99.90;;;;;;5038758;28;20448;-81
2023/08/29 10:29:27;;;;;;;5.77;4.00;;;20.50;99.90;;;;;;5038772;28;20444;-80
2023/08/29 10:31:54;;;;;;;6.70;3.20;;;20.60;99.90;;;;;;5039225;28;21023;-80
2023/08/29 10:34:24;;;;;;;7.90;4.90;;;20.60;99.90;;;;;;5039299;28;20536;-79
2023/08/29 10:36:51;;;;;;;3.43;3.13;;;20.50;99.90;;;;;;5037854;28;20453;-81
2023/08/29 10:39:19;;;;;;;4.27;3.70;;;20.50;99.90;;;;;;5039008;28;20536;-80
2023/08/29 10:41:47;;;;;;;6.00;4.70;;;20.60;99.90;;;;;;5039151;28;20445;-81
2023/08/29 10:44:39;;;;;;;5.50;4.03;;;20.80;99.90;;;;;;5039142;28;20445;-82
2023/08/29 10:47:23;;;;;;;4.83;3.17;;;20.90;99.90;;;;;;5038094;28;20505;-81
2023/08/29 10:49:57;;;;;;;5.37;2.50;;;21.00;99.90;;;;;;5019898;28;20457;-80
2023/08/29 10:52:24;;;;;;;5.17;2.90;;;21.20;99.90;;;;;;5019057;28;20472;-80
2023/08/29 10:55:03;;;;;;;4.07;2.10;;;21.20;99.90;;;;;;5019174;28;20521;-80
2023/08/29 10:57:31;;;;;;;5.30;1.83;;;21.30;99.90;;;;;;5017896;28;20533;-82
2023/08/29 10:59:58;;;;;;;3.60;2.37;;;21.50;99.90;;;;;;5018479;28;20460;-81
2023/08/29 11:02:29;;;;;;;3.70;2.47;;;21.60;99.90;;;;;;5027219;28;20459;-82
2023/08/29 11:05:14;;;;;;;4.30;1.87;;;21.70;99.90;;;;;;5038869;28;20954;-81
2023/08/29 11:07:41;;;;;;;3.33;2.30;;;21.70;99.90;;;;;;5038936;28;20467;-81
2023/08/29 11:10:20;;;;;;;2.60;2.30;;;21.40;99.90;;;;;;5038870;28;21037;-80
2023/08/29 11:13:04;;;;;;;3.50;3.00;;;21.40;99.90;;;;;;5036549;28;20958;-82
2023/08/29 11:16:07;;;;;;;3.33;2.30;;;21.60;99.90;;;;;;5019157;28;20450;-82
2023/08/29 11:18:34;;;;;;;3.00;1.93;;;21.90;99.90;;;;;;5058884;22;20544;-82
2023/08/29 11:21:06;;;;;;;4.13;1.80;;;22.30;99.90;;;;;;5078495;28;20439;-82
2023/08/29 11:23:37;;;;;;;3.00;1.60;;;22.60;99.90;;;;;;5078637;28;20431;-85
2023/08/29 11:26:04;;;;;;;2.27;1.53;;;22.80;99.90;;;;;;5076998;28;20462;-85
2023/08/29 11:28:33;;;;;;;2.87;1.87;;;22.90;99.90;;;;;;5060061;28;20482;-82
2023/08/29 11:31:00;;;;;;;2.50;1.40;;;22.90;99.90;;;;;;5057784;28;20715;-85
2023/08/29 11:33:37;;;;;;;2.47;1.27;;;23.00;99.90;;;;;;5058983;28;20578;-83
2023/08/29 11:36:09;;;;;;;1.90;1.10;;;23.00;99.90;;;;;;5056556;28;21013;-82
2023/08/29 11:38:37;;;;;;;5.13;1.60;;;23.30;99.90;;;;;;5059300;28;20475;-84
2023/08/29 11:41:05;;;;;;;3.30;1.60;;;23.40;99.90;;;;;;5057195;28;20451;-82
2023/08/29 11:43:33;;;;;;;2.10;1.30;;;23.40;99.90;;;;;;5064713;28;20871;-82
2023/08/29 11:46:03;;;;;;;3.23;1.33;;;23.70;99.90;;;;;;5077677;28;20451;-82
2023/08/29 11:48:31;;;;;;;1.87;0.90;;;23.90;99.90;;;;;;5078251;28;20479;-82
2023/08/29 11:51:00;;;;;;;2.77;1.30;;;23.90;99.90;;;;;;5088760;28;20451;-83
2023/08/29 11:53:32;;;;;;;2.50;0.97;;;24.00;99.90;;;;;;5077672;28;20489;-82
2023/08/29 11:56:00;;;;;;;2.53;1.20;;;24.20;99.90;;;;;;5074363;28;20486;-82
2023/08/29 11:58:30;;;;;;;2.00;1.27;;;24.00;99.90;;;;;;5074900;28;20473;-82
2023/08/29 12:01:07;;;;;;;1.93;1.20;;;23.90;99.90;;;;;;5112301;27;20600;-81
2023/08/29 12:03:36;;;;;;;3.73;2.17;;;23.80;99.90;;;;;;5113019;28;20495;-81
2023/08/29 12:06:04;;;;;;;2.87;2.27;;;23.70;99.90;;;;;;5111875;28;20473;-81
2023/08/29 12:08:36;;;;;;;6.67;2.00;;;23.60;99.90;;;;;;5103708;28;20533;-82
2023/08/29 12:11:06;;;;;;;3.10;2.60;;;23.70;99.90;;;;;;5093042;28;20889;-83
2023/08/29 12:13:33;;;;;;;5.07;2.97;;;23.80;99.90;;;;;;5093753;28;20537;-83
2023/08/29 12:16:02;;;;;;;4.10;3.43;;;24.00;99.90;;;;;;5095616;28;20474;-81
2023/08/29 12:18:32;;;;;;;3.67;3.37;;;24.30;99.90;;;;;;5086278;28;20531;-81
2023/08/29 12:21:13;;;;;;;4.20;3.80;;;24.40;99.90;;;;;;5079162;28;20493;-82
2023/08/29 12:23:42;;;;;;;4.03;3.30;;;24.50;99.90;;;;;;5080224;28;20797;-82
2023/08/29 12:26:09;;;;;;;5.43;3.17;;;24.20;99.90;;;;;;5090871;28;20454;-83
2023/08/29 12:28:39;;;;;;;3.27;2.97;;;24.20;99.90;;;;;;5090551;28;20541;-82
2023/08/29 12:31:08;;;;;;;3.83;3.43;;;24.20;99.90;;;;;;5094634;28;20532;-82
2023/08/29 12:33:37;;;;;;;4.00;3.60;;;24.20;99.90;;;;;;5097254;28;20470;-83
2023/08/29 12:36:04;;;;;;;3.03;2.73;;;24.30;99.90;;;;;;5095062;28;20939;-82
2023/08/29 12:38:31;;;;;;;5.77;3.10;;;24.50;99.90;;;;;;5093510;28;20478;-83
2023/08/29 12:40:58;;;;;;;3.33;2.50;;;24.60;99.90;;;;;;5093961;28;20482;-82
2023/08/29 12:43:25;;;;;;;3.23;2.40;;;24.70;99.90;;;;;;5089441;28;20521;-83
2023/08/29 12:45:52;;;;;;;5.03;2.80;;;24.40;99.90;;;;;;5086063;28;20537;-83
2023/08/29 12:48:20;;;;;;;4.60;2.83;;;24.10;99.90;;;;;;5094584;28;20473;-83